sensor_id;sensor_type;location;lat;lon;timestamp;temperature;humidity
7666;DHT22;3875;46.562;4.898;2022-10-22T00:00:52;17.10;94.50
7666;DHT22;3875;46.562;4.898;2022-10-22T00:03:17;17.10;94.50
7666;DHT22;3875;46.562;4.898;2022-10-22T00:05:43;17.10;94.50
7666;DHT22;3875;46.562;4.898;2022-10-22T00:08:09;17.00;94.40
7666;DHT22;3875;46.562;4.898;2022-10-22T00:10:36;17.00;94.70
7666;DHT22;3875;46.562;4.898;2022-10-22T00:13:03;17.00;94.80
7666;DHT22;3875;46.562;4.898;2022-10-22T00:15:28;17.00;95.00
7666;DHT22;3875;46.562;4.898;2022-10-22T00:17:54;16.90;95.00
7666;DHT22;3875;46.562;4.898;2022-10-22T00:20:20;16.90;95.20
7666;DHT22;3875;46.562;4.898;2022-10-22T00:22:47;17.00;95.20
7666;DHT22;3875;46.562;4.898;2022-10-22T00:25:13;17.00;95.00
7666;DHT22;3875;46.562;4.898;2022-10-22T00:27:38;17.00;94.90
7666;DHT22;3875;46.562;4.898;2022-10-22T00:30:04;17.00;94.80
7666;DHT22;3875;46.562;4.898;2022-10-22T00:32:30;17.00;94.80
7666;DHT22;3875;46.562;4.898;2022-10-22T00:34:56;17.00;95.00
7666;DHT22;3875;46.562;4.898;2022-10-22T00:37:22;16.90;95.20
7666;DHT22;3875;46.562;4.898;2022-10-22T00:39:48;16.90;95.30
7666;DHT22;3875;46.562;4.898;2022-10-22T00:42:25;16.90;95.30
7666;DHT22;3875;46.562;4.898;2022-10-22T00:45:21;16.90;95.30
7666;DHT22;3875;46.562;4.898;2022-10-22T00:52:57;16.90;95.50
7666;DHT22;3875;46.562;4.898;2022-10-22T00:55:24;16.90;95.40
7666;DHT22;3875;46.562;4.898;2022-10-22T00:57:51;16.90;95.40
7666;DHT22;3875;46.562;4.898;2022-10-22T01:00:18;16.90;95.40
7666;DHT22;3875;46.562;4.898;2022-10-22T01:02:45;16.90;95.40
7666;DHT22;3875;46.562;4.898;2022-10-22T01:05:11;16.90;95.60
7666;DHT22;3875;46.562;4.898;2022-10-22T01:07:42;17.00;95.70
7666;DHT22;3875;46.562;4.898;2022-10-22T01:15:58;16.90;95.70
7666;DHT22;3875;46.562;4.898;2022-10-22T01:18:28;16.90;95.70
7666;DHT22;3875;46.562;4.898;2022-10-22T01:24:10;16.90;95.60
7666;DHT22;3875;46.562;4.898;2022-10-22T01:29:15;16.80;96.00
7666;DHT22;3875;46.562;4.898;2022-10-22T01:31:45;16.80;96.00
7666;DHT22;3875;46.562;4.898;2022-10-22T01:34:15;16.90;95.90
7666;DHT22;3875;46.562;4.898;2022-10-22T01:36:43;16.80;95.80
7666;DHT22;3875;46.562;4.898;2022-10-22T01:39:11;16.80;96.00
7666;DHT22;3875;46.562;4.898;2022-10-22T01:41:38;16.80;96.00
7666;DHT22;3875;46.562;4.898;2022-10-22T01:44:04;16.90;96.10
7666;DHT22;3875;46.562;4.898;2022-10-22T01:46:30;16.90;96.00
7666;DHT22;3875;46.562;4.898;2022-10-22T02:00:42;16.90;95.90
7666;DHT22;3875;46.562;4.898;2022-10-22T02:03:47;16.80;95.90
7666;DHT22;3875;46.562;4.898;2022-10-22T02:06:18;16.90;96.00
7666;DHT22;3875;46.562;4.898;2022-10-22T02:08:46;16.80;96.20
7666;DHT22;3875;46.562;4.898;2022-10-22T02:11:13;16.80;96.50
7666;DHT22;3875;46.562;4.898;2022-10-22T02:13:43;16.90;96.60
7666;DHT22;3875;46.562;4.898;2022-10-22T02:16:12;16.90;96.60
7666;DHT22;3875;46.562;4.898;2022-10-22T02:18:42;16.90;96.60
7666;DHT22;3875;46.562;4.898;2022-10-22T02:21:08;16.90;96.60
7666;DHT22;3875;46.562;4.898;2022-10-22T02:23:34;16.90;96.60
7666;DHT22;3875;46.562;4.898;2022-10-22T02:26:10;16.90;96.60
7666;DHT22;3875;46.562;4.898;2022-10-22T02:28:48;17.00;96.50
7666;DHT22;3875;46.562;4.898;2022-10-22T02:31:20;17.00;96.50
7666;DHT22;3875;46.562;4.898;2022-10-22T02:33:50;17.00;96.60
7666;DHT22;3875;46.562;4.898;2022-10-22T02:36:17;17.00;96.70
7666;DHT22;3875;46.562;4.898;2022-10-22T02:38:45;17.00;96.80
7666;DHT22;3875;46.562;4.898;2022-10-22T02:41:11;17.00;96.80
7666;DHT22;3875;46.562;4.898;2022-10-22T02:43:44;17.10;96.80
7666;DHT22;3875;46.562;4.898;2022-10-22T02:46:13;17.10;96.80
7666;DHT22;3875;46.562;4.898;2022-10-22T02:48:39;17.00;96.80
7666;DHT22;3875;46.562;4.898;2022-10-22T02:51:04;17.00;96.80
7666;DHT22;3875;46.562;4.898;2022-10-22T02:53:30;17.00;96.80
7666;DHT22;3875;46.562;4.898;2022-10-22T02:55:56;17.10;96.80
7666;DHT22;3875;46.562;4.898;2022-10-22T02:58:22;17.00;96.80
7666;DHT22;3875;46.562;4.898;2022-10-22T03:00:48;17.00;96.80
7666;DHT22;3875;46.562;4.898;2022-10-22T03:03:13;17.00;96.80
7666;DHT22;3875;46.562;4.898;2022-10-22T03:05:39;17.00;96.80
7666;DHT22;3875;46.562;4.898;2022-10-22T03:08:05;17.00;97.00
7666;DHT22;3875;46.562;4.898;2022-10-22T03:10:31;17.00;97.00
7666;DHT22;3875;46.562;4.898;2022-10-22T03:12:56;17.00;97.30
7666;DHT22;3875;46.562;4.898;2022-10-22T03:15:22;17.00;97.40
7666;DHT22;3875;46.562;4.898;2022-10-22T03:17:48;17.10;97.40
7666;DHT22;3875;46.562;4.898;2022-10-22T03:20:13;17.10;97.40
7666;DHT22;3875;46.562;4.898;2022-10-22T03:22:40;17.10;97.30
7666;DHT22;3875;46.562;4.898;2022-10-22T03:25:09;17.10;97.30
7666;DHT22;3875;46.562;4.898;2022-10-22T03:27:38;17.10;97.30
7666;DHT22;3875;46.562;4.898;2022-10-22T03:30:05;17.10;97.40
7666;DHT22;3875;46.562;4.898;2022-10-22T03:32:31;17.10;97.40
7666;DHT22;3875;46.562;4.898;2022-10-22T03:34:57;17.10;97.30
7666;DHT22;3875;46.562;4.898;2022-10-22T03:37:23;17.10;97.20
7666;DHT22;3875;46.562;4.898;2022-10-22T03:39:49;17.10;97.20
7666;DHT22;3875;46.562;4.898;2022-10-22T03:42:15;17.10;97.20
7666;DHT22;3875;46.562;4.898;2022-10-22T03:44:42;17.10;97.10
7666;DHT22;3875;46.562;4.898;2022-10-22T03:47:08;17.10;97.20
7666;DHT22;3875;46.562;4.898;2022-10-22T03:49:34;17.10;97.30
7666;DHT22;3875;46.562;4.898;2022-10-22T03:52:12;17.10;97.60
7666;DHT22;3875;46.562;4.898;2022-10-22T03:54:39;17.10;97.70
7666;DHT22;3875;46.562;4.898;2022-10-22T03:57:05;17.10;98.00
7666;DHT22;3875;46.562;4.898;2022-10-22T03:59:41;17.10;98.10
7666;DHT22;3875;46.562;4.898;2022-10-22T04:02:09;17.10;98.10
7666;DHT22;3875;46.562;4.898;2022-10-22T04:04:35;17.10;98.00
7666;DHT22;3875;46.562;4.898;2022-10-22T04:07:00;17.10;98.00
7666;DHT22;3875;46.562;4.898;2022-10-22T04:09:26;17.10;97.90
7666;DHT22;3875;46.562;4.898;2022-10-22T04:11:52;17.10;97.80
7666;DHT22;3875;46.562;4.898;2022-10-22T04:14:18;17.20;97.60
7666;DHT22;3875;46.562;4.898;2022-10-22T04:16:43;17.20;97.40
7666;DHT22;3875;46.562;4.898;2022-10-22T04:19:09;17.20;97.30
7666;DHT22;3875;46.562;4.898;2022-10-22T04:21:35;17.20;97.20
7666;DHT22;3875;46.562;4.898;2022-10-22T04:24:00;17.20;97.10
7666;DHT22;3875;46.562;4.898;2022-10-22T04:26:26;17.20;97.10
7666;DHT22;3875;46.562;4.898;2022-10-22T04:28:52;17.20;97.00
7666;DHT22;3875;46.562;4.898;2022-10-22T04:31:20;17.20;96.90
7666;DHT22;3875;46.562;4.898;2022-10-22T04:33:50;17.20;96.90
7666;DHT22;3875;46.562;4.898;2022-10-22T04:36:17;17.20;96.70
7666;DHT22;3875;46.562;4.898;2022-10-22T04:38:45;17.20;96.80
7666;DHT22;3875;46.562;4.898;2022-10-22T04:41:16;17.20;96.60
7666;DHT22;3875;46.562;4.898;2022-10-22T04:43:42;17.10;96.60
7666;DHT22;3875;46.562;4.898;2022-10-22T04:46:09;17.10;96.80
7666;DHT22;3875;46.562;4.898;2022-10-22T04:48:39;17.10;96.80
7666;DHT22;3875;46.562;4.898;2022-10-22T04:51:06;17.10;96.80
7666;DHT22;3875;46.562;4.898;2022-10-22T04:53:34;17.10;96.90
7666;DHT22;3875;46.562;4.898;2022-10-22T04:56:07;17.10;96.90
7666;DHT22;3875;46.562;4.898;2022-10-22T04:58:33;17.10;96.90
7666;DHT22;3875;46.562;4.898;2022-10-22T05:00:59;17.10;96.80
7666;DHT22;3875;46.562;4.898;2022-10-22T05:03:24;17.10;96.70
7666;DHT22;3875;46.562;4.898;2022-10-22T05:05:50;17.10;96.70
7666;DHT22;3875;46.562;4.898;2022-10-22T05:08:16;17.10;96.70
7666;DHT22;3875;46.562;4.898;2022-10-22T05:10:41;17.00;96.60
7666;DHT22;3875;46.562;4.898;2022-10-22T05:13:07;17.00;96.70
7666;DHT22;3875;46.562;4.898;2022-10-22T05:15:33;17.00;96.80
7666;DHT22;3875;46.562;4.898;2022-10-22T05:17:59;17.00;96.90
7666;DHT22;3875;46.562;4.898;2022-10-22T05:20:24;16.90;97.20
7666;DHT22;3875;46.562;4.898;2022-10-22T05:22:50;16.90;97.40
7666;DHT22;3875;46.562;4.898;2022-10-22T05:25:16;16.90;97.50
7666;DHT22;3875;46.562;4.898;2022-10-22T05:27:41;17.00;97.40
7666;DHT22;3875;46.562;4.898;2022-10-22T05:30:07;17.00;97.10
7666;DHT22;3875;46.562;4.898;2022-10-22T05:32:34;17.00;97.20
7666;DHT22;3875;46.562;4.898;2022-10-22T05:35:00;17.00;97.20
7666;DHT22;3875;46.562;4.898;2022-10-22T05:37:25;17.00;97.20
7666;DHT22;3875;46.562;4.898;2022-10-22T05:39:51;17.00;97.20
7666;DHT22;3875;46.562;4.898;2022-10-22T05:42:16;17.00;97.20
7666;DHT22;3875;46.562;4.898;2022-10-22T05:44:42;17.00;97.20
7666;DHT22;3875;46.562;4.898;2022-10-22T05:47:08;17.00;97.20
7666;DHT22;3875;46.562;4.898;2022-10-22T05:49:34;17.00;97.20
7666;DHT22;3875;46.562;4.898;2022-10-22T05:52:00;17.00;97.00
7666;DHT22;3875;46.562;4.898;2022-10-22T05:54:25;17.00;97.10
7666;DHT22;3875;46.562;4.898;2022-10-22T05:56:51;17.00;97.10
7666;DHT22;3875;46.562;4.898;2022-10-22T05:59:17;17.00;97.00
7666;DHT22;3875;46.562;4.898;2022-10-22T06:01:42;17.00;97.10
7666;DHT22;3875;46.562;4.898;2022-10-22T06:04:10;16.90;97.20
7666;DHT22;3875;46.562;4.898;2022-10-22T06:06:45;16.90;97.30
7666;DHT22;3875;46.562;4.898;2022-10-22T06:11:46;16.80;97.60
7666;DHT22;3875;46.562;4.898;2022-10-22T06:14:13;16.80;97.70
7666;DHT22;3875;46.562;4.898;2022-10-22T06:16:39;16.80;97.80
7666;DHT22;3875;46.562;4.898;2022-10-22T06:19:06;16.70;98.00
7666;DHT22;3875;46.562;4.898;2022-10-22T06:21:32;16.70;98.00
7666;DHT22;3875;46.562;4.898;2022-10-22T06:23:59;16.70;98.00
7666;DHT22;3875;46.562;4.898;2022-10-22T06:26:25;16.70;98.00
7666;DHT22;3875;46.562;4.898;2022-10-22T06:28:51;16.70;98.00
7666;DHT22;3875;46.562;4.898;2022-10-22T06:31:17;16.70;98.10
7666;DHT22;3875;46.562;4.898;2022-10-22T06:33:43;16.70;98.20
7666;DHT22;3875;46.562;4.898;2022-10-22T06:36:13;16.70;98.20
7666;DHT22;3875;46.562;4.898;2022-10-22T06:38:40;16.70;98.10
7666;DHT22;3875;46.562;4.898;2022-10-22T06:41:11;16.70;98.20
7666;DHT22;3875;46.562;4.898;2022-10-22T06:43:38;16.70;98.10
7666;DHT22;3875;46.562;4.898;2022-10-22T06:46:06;16.70;98.10
7666;DHT22;3875;46.562;4.898;2022-10-22T06:48:34;16.80;98.10
7666;DHT22;3875;46.562;4.898;2022-10-22T06:51:04;16.80;98.10
7666;DHT22;3875;46.562;4.898;2022-10-22T06:53:31;16.90;98.10
7666;DHT22;3875;46.562;4.898;2022-10-22T06:55:56;16.90;98.00
7666;DHT22;3875;46.562;4.898;2022-10-22T06:58:22;17.00;97.90
7666;DHT22;3875;46.562;4.898;2022-10-22T07:00:48;17.10;97.80
7666;DHT22;3875;46.562;4.898;2022-10-22T07:03:14;17.10;97.70
7666;DHT22;3875;46.562;4.898;2022-10-22T07:05:40;17.10;97.70
7666;DHT22;3875;46.562;4.898;2022-10-22T07:08:06;17.20;97.70
7666;DHT22;3875;46.562;4.898;2022-10-22T07:10:32;17.20;97.80
7666;DHT22;3875;46.562;4.898;2022-10-22T07:12:58;17.20;97.70
7666;DHT22;3875;46.562;4.898;2022-10-22T07:15:24;17.30;97.60
7666;DHT22;3875;46.562;4.898;2022-10-22T07:17:49;17.30;97.60
7666;DHT22;3875;46.562;4.898;2022-10-22T07:20:17;17.40;97.60
7666;DHT22;3875;46.562;4.898;2022-10-22T07:22:44;17.40;97.70
7666;DHT22;3875;46.562;4.898;2022-10-22T07:25:10;17.40;97.60
7666;DHT22;3875;46.562;4.898;2022-10-22T07:27:36;17.40;97.70
7666;DHT22;3875;46.562;4.898;2022-10-22T07:30:02;17.50;97.70
7666;DHT22;3875;46.562;4.898;2022-10-22T07:32:28;17.50;97.50
7666;DHT22;3875;46.562;4.898;2022-10-22T07:34:54;17.50;97.30
7666;DHT22;3875;46.562;4.898;2022-10-22T07:37:19;17.50;97.30
7666;DHT22;3875;46.562;4.898;2022-10-22T07:39:47;17.40;97.50
7666;DHT22;3875;46.562;4.898;2022-10-22T07:42:13;17.50;97.70
7666;DHT22;3875;46.562;4.898;2022-10-22T07:44:39;17.50;97.60
7666;DHT22;3875;46.562;4.898;2022-10-22T07:47:04;17.50;97.40
7666;DHT22;3875;46.562;4.898;2022-10-22T07:49:30;17.50;97.50
7666;DHT22;3875;46.562;4.898;2022-10-22T07:51:56;17.60;97.60
7666;DHT22;3875;46.562;4.898;2022-10-22T07:54:23;17.60;97.60
7666;DHT22;3875;46.562;4.898;2022-10-22T07:56:49;17.60;97.50
7666;DHT22;3875;46.562;4.898;2022-10-22T07:59:14;17.60;97.60
7666;DHT22;3875;46.562;4.898;2022-10-22T08:01:40;17.70;97.60
7666;DHT22;3875;46.562;4.898;2022-10-22T08:04:06;17.70;97.60
7666;DHT22;3875;46.562;4.898;2022-10-22T08:06:35;17.90;97.60
7666;DHT22;3875;46.562;4.898;2022-10-22T08:09:01;18.20;97.40
7666;DHT22;3875;46.562;4.898;2022-10-22T08:11:27;18.20;96.80
7666;DHT22;3875;46.562;4.898;2022-10-22T08:13:53;18.40;96.70
7666;DHT22;3875;46.562;4.898;2022-10-22T08:16:18;18.40;96.30
7666;DHT22;3875;46.562;4.898;2022-10-22T08:18:44;18.60;96.40
7666;DHT22;3875;46.562;4.898;2022-10-22T08:21:11;18.70;96.00
7666;DHT22;3875;46.562;4.898;2022-10-22T08:23:37;18.80;95.10
7666;DHT22;3875;46.562;4.898;2022-10-22T08:26:03;18.80;95.10
7666;DHT22;3875;46.562;4.898;2022-10-22T08:28:29;18.90;94.80
7666;DHT22;3875;46.562;4.898;2022-10-22T08:30:57;19.00;94.90
7666;DHT22;3875;46.562;4.898;2022-10-22T08:33:23;19.00;94.30
7666;DHT22;3875;46.562;4.898;2022-10-22T08:35:52;19.00;94.20
7666;DHT22;3875;46.562;4.898;2022-10-22T08:38:18;19.10;94.10
7666;DHT22;3875;46.562;4.898;2022-10-22T08:41:19;19.10;93.90
7666;DHT22;3875;46.562;4.898;2022-10-22T08:46:09;19.20;93.70
7666;DHT22;3875;46.562;4.898;2022-10-22T08:48:57;19.40;93.50
7666;DHT22;3875;46.562;4.898;2022-10-22T08:51:28;19.50;92.90
7666;DHT22;3875;46.562;4.898;2022-10-22T08:56:43;19.50;91.70
7666;DHT22;3875;46.562;4.898;2022-10-22T09:02:19;19.40;91.60
7666;DHT22;3875;46.562;4.898;2022-10-22T09:04:53;19.40;92.20
7666;DHT22;3875;46.562;4.898;2022-10-22T09:07:20;19.60;92.20
7666;DHT22;3875;46.562;4.898;2022-10-22T09:09:49;19.80;91.60
7666;DHT22;3875;46.562;4.898;2022-10-22T09:12:16;19.90;90.40
7666;DHT22;3875;46.562;4.898;2022-10-22T09:14:42;19.90;90.40
7666;DHT22;3875;46.562;4.898;2022-10-22T09:17:32;20.00;90.00
7666;DHT22;3875;46.562;4.898;2022-10-22T09:22:48;20.10;88.70
7666;DHT22;3875;46.562;4.898;2022-10-22T09:25:21;20.10;88.70
7666;DHT22;3875;46.562;4.898;2022-10-22T09:27:48;20.30;88.70
7666;DHT22;3875;46.562;4.898;2022-10-22T09:30:20;20.50;88.80
7666;DHT22;3875;46.562;4.898;2022-10-22T09:32:50;20.80;88.30
7666;DHT22;3875;46.562;4.898;2022-10-22T09:35:22;20.90;87.00
7666;DHT22;3875;46.562;4.898;2022-10-22T09:37:51;20.90;85.90
7666;DHT22;3875;46.562;4.898;2022-10-22T09:40:17;21.00;85.80
7666;DHT22;3875;46.562;4.898;2022-10-22T09:42:44;21.10;85.70
7666;DHT22;3875;46.562;4.898;2022-10-22T09:45:24;21.10;85.70
7666;DHT22;3875;46.562;4.898;2022-10-22T09:48:08;21.30;84.90
7666;DHT22;3875;46.562;4.898;2022-10-22T09:53:36;21.60;83.40
7666;DHT22;3875;46.562;4.898;2022-10-22T09:56:08;21.70;83.00
7666;DHT22;3875;46.562;4.898;2022-10-22T09:58:45;21.70;83.90
7666;DHT22;3875;46.562;4.898;2022-10-22T10:01:28;21.90;83.30
7666;DHT22;3875;46.562;4.898;2022-10-22T10:04:05;22.00;82.80
7666;DHT22;3875;46.562;4.898;2022-10-22T10:06:32;22.10;83.60
7666;DHT22;3875;46.562;4.898;2022-10-22T10:08:58;22.20;83.60
7666;DHT22;3875;46.562;4.898;2022-10-22T10:11:44;22.30;82.80
7666;DHT22;3875;46.562;4.898;2022-10-22T10:25:47;22.10;83.50
7666;DHT22;3875;46.562;4.898;2022-10-22T10:28:28;22.50;82.30
7666;DHT22;3875;46.562;4.898;2022-10-22T10:36:42;23.10;80.60
7666;DHT22;3875;46.562;4.898;2022-10-22T10:42:32;23.40;77.60
7666;DHT22;3875;46.562;4.898;2022-10-22T10:50:27;23.90;76.60
7666;DHT22;3875;46.562;4.898;2022-10-22T10:53:20;23.90;76.20
7666;DHT22;3875;46.562;4.898;2022-10-22T10:56:41;23.90;76.80
7666;DHT22;3875;46.562;4.898;2022-10-22T10:59:11;23.80;77.60
7666;DHT22;3875;46.562;4.898;2022-10-22T11:07:43;23.90;77.10
7666;DHT22;3875;46.562;4.898;2022-10-22T11:10:43;24.00;76.90
7666;DHT22;3875;46.562;4.898;2022-10-22T11:15:44;24.50;77.80
7666;DHT22;3875;46.562;4.898;2022-10-22T11:18:14;24.60;76.20
7666;DHT22;3875;46.562;4.898;2022-10-22T11:20:49;24.70;75.60
7666;DHT22;3875;46.562;4.898;2022-10-22T11:23:34;24.70;75.20
7666;DHT22;3875;46.562;4.898;2022-10-22T11:26:01;24.70;75.20
7666;DHT22;3875;46.562;4.898;2022-10-22T11:28:36;24.80;75.30
7666;DHT22;3875;46.562;4.898;2022-10-22T11:31:15;24.80;75.50
7666;DHT22;3875;46.562;4.898;2022-10-22T11:34:13;24.90;75.20
7666;DHT22;3875;46.562;4.898;2022-10-22T11:36:41;24.90;75.10
7666;DHT22;3875;46.562;4.898;2022-10-22T11:39:28;25.10;74.30
7666;DHT22;3875;46.562;4.898;2022-10-22T11:41:58;24.90;74.10
7666;DHT22;3875;46.562;4.898;2022-10-22T11:44:24;24.70;75.20
7666;DHT22;3875;46.562;4.898;2022-10-22T11:47:19;24.60;75.30
7666;DHT22;3875;46.562;4.898;2022-10-22T11:49:56;24.50;75.20
7666;DHT22;3875;46.562;4.898;2022-10-22T11:52:26;24.50;75.70
7666;DHT22;3875;46.562;4.898;2022-10-22T11:54:55;24.60;76.00
7666;DHT22;3875;46.562;4.898;2022-10-22T11:59:56;24.80;74.90
7666;DHT22;3875;46.562;4.898;2022-10-22T12:02:40;24.90;75.90
7666;DHT22;3875;46.562;4.898;2022-10-22T12:05:39;25.00;75.50
7666;DHT22;3875;46.562;4.898;2022-10-22T12:13:25;25.10;74.10
7666;DHT22;3875;46.562;4.898;2022-10-22T12:16:01;25.10;75.30
7666;DHT22;3875;46.562;4.898;2022-10-22T12:18:40;25.10;73.80
7666;DHT22;3875;46.562;4.898;2022-10-22T12:21:13;25.10;74.10
7666;DHT22;3875;46.562;4.898;2022-10-22T12:23:40;25.30;74.30
7666;DHT22;3875;46.562;4.898;2022-10-22T12:26:25;25.30;73.10
7666;DHT22;3875;46.562;4.898;2022-10-22T12:28:58;25.10;73.80
7666;DHT22;3875;46.562;4.898;2022-10-22T12:31:25;25.10;74.30
7666;DHT22;3875;46.562;4.898;2022-10-22T12:33:56;25.00;74.40
7666;DHT22;3875;46.562;4.898;2022-10-22T12:36:25;24.90;74.50
7666;DHT22;3875;46.562;4.898;2022-10-22T12:38:51;25.20;74.50
7666;DHT22;3875;46.562;4.898;2022-10-22T12:41:17;25.30;73.90
7666;DHT22;3875;46.562;4.898;2022-10-22T12:43:43;25.20;73.50
7666;DHT22;3875;46.562;4.898;2022-10-22T12:46:14;24.90;73.30
7666;DHT22;3875;46.562;4.898;2022-10-22T12:48:43;25.00;73.70
7666;DHT22;3875;46.562;4.898;2022-10-22T12:51:15;25.00;73.80
7666;DHT22;3875;46.562;4.898;2022-10-22T12:53:55;25.20;73.00
7666;DHT22;3875;46.562;4.898;2022-10-22T12:56:26;25.00;73.40
7666;DHT22;3875;46.562;4.898;2022-10-22T13:01:23;24.80;72.60
7666;DHT22;3875;46.562;4.898;2022-10-22T13:04:02;24.70;73.80
7666;DHT22;3875;46.562;4.898;2022-10-22T13:06:33;24.70;73.70
7666;DHT22;3875;46.562;4.898;2022-10-22T13:09:18;24.80;73.10
7666;DHT22;3875;46.562;4.898;2022-10-22T13:11:54;24.70;73.70
7666;DHT22;3875;46.562;4.898;2022-10-22T13:14:30;24.70;73.90
7666;DHT22;3875;46.562;4.898;2022-10-22T13:17:09;24.70;73.70
7666;DHT22;3875;46.562;4.898;2022-10-22T13:20:18;24.60;73.60
7666;DHT22;3875;46.562;4.898;2022-10-22T13:22:55;24.50;73.50
7666;DHT22;3875;46.562;4.898;2022-10-22T13:25:35;24.30;73.70
7666;DHT22;3875;46.562;4.898;2022-10-22T13:30:37;24.30;74.30
7666;DHT22;3875;46.562;4.898;2022-10-22T13:33:32;24.30;74.50
7666;DHT22;3875;46.562;4.898;2022-10-22T13:35:58;24.30;74.20
7666;DHT22;3875;46.562;4.898;2022-10-22T13:38:26;24.40;74.70
7666;DHT22;3875;46.562;4.898;2022-10-22T13:40:52;24.40;75.10
7666;DHT22;3875;46.562;4.898;2022-10-22T13:43:18;24.50;74.80
7666;DHT22;3875;46.562;4.898;2022-10-22T13:45:49;24.40;74.80
7666;DHT22;3875;46.562;4.898;2022-10-22T13:48:18;24.40;75.30
7666;DHT22;3875;46.562;4.898;2022-10-22T13:50:47;24.30;75.10
7666;DHT22;3875;46.562;4.898;2022-10-22T13:53:34;24.40;75.60
7666;DHT22;3875;46.562;4.898;2022-10-22T13:56:00;24.40;75.60
7666;DHT22;3875;46.562;4.898;2022-10-22T13:58:26;24.60;75.80
7666;DHT22;3875;46.562;4.898;2022-10-22T14:00:57;24.50;75.00
7666;DHT22;3875;46.562;4.898;2022-10-22T14:03:32;24.50;75.60
7666;DHT22;3875;46.562;4.898;2022-10-22T14:05:59;24.40;75.80
7666;DHT22;3875;46.562;4.898;2022-10-22T14:08:26;24.40;75.80
7666;DHT22;3875;46.562;4.898;2022-10-22T14:10:53;24.40;76.10
7666;DHT22;3875;46.562;4.898;2022-10-22T14:13:19;24.40;76.30
7666;DHT22;3875;46.562;4.898;2022-10-22T14:15:48;24.40;76.60
7666;DHT22;3875;46.562;4.898;2022-10-22T14:18:19;24.40;76.40
7666;DHT22;3875;46.562;4.898;2022-10-22T14:20:51;24.30;76.20
7666;DHT22;3875;46.562;4.898;2022-10-22T14:23:22;24.20;76.30
7666;DHT22;3875;46.562;4.898;2022-10-22T14:25:49;24.10;76.70
7666;DHT22;3875;46.562;4.898;2022-10-22T14:28:18;24.00;76.80
7666;DHT22;3875;46.562;4.898;2022-10-22T14:30:44;23.90;76.60
7666;DHT22;3875;46.562;4.898;2022-10-22T14:33:16;23.80;76.90
7666;DHT22;3875;46.562;4.898;2022-10-22T14:35:42;23.80;77.30
7666;DHT22;3875;46.562;4.898;2022-10-22T14:38:08;23.90;77.50
7666;DHT22;3875;46.562;4.898;2022-10-22T14:40:34;23.90;77.40
7666;DHT22;3875;46.562;4.898;2022-10-22T14:43:04;23.80;77.10
7666;DHT22;3875;46.562;4.898;2022-10-22T14:45:30;23.80;77.30
7666;DHT22;3875;46.562;4.898;2022-10-22T14:47:55;23.90;77.50
7666;DHT22;3875;46.562;4.898;2022-10-22T14:50:22;23.90;77.80
7666;DHT22;3875;46.562;4.898;2022-10-22T14:52:49;23.80;77.30
7666;DHT22;3875;46.562;4.898;2022-10-22T14:55:16;23.80;77.60
7666;DHT22;3875;46.562;4.898;2022-10-22T14:57:42;23.80;77.60
7666;DHT22;3875;46.562;4.898;2022-10-22T15:00:11;23.80;77.60
7666;DHT22;3875;46.562;4.898;2022-10-22T15:02:37;23.90;77.70
7666;DHT22;3875;46.562;4.898;2022-10-22T15:05:03;23.80;77.60
7666;DHT22;3875;46.562;4.898;2022-10-22T15:07:29;23.80;77.40
7666;DHT22;3875;46.562;4.898;2022-10-22T15:09:55;23.70;77.60
7666;DHT22;3875;46.562;4.898;2022-10-22T15:12:21;23.70;77.90
7666;DHT22;3875;46.562;4.898;2022-10-22T15:14:46;23.60;78.00
7666;DHT22;3875;46.562;4.898;2022-10-22T15:17:13;23.50;78.30
7666;DHT22;3875;46.562;4.898;2022-10-22T15:19:39;23.40;78.60
7666;DHT22;3875;46.562;4.898;2022-10-22T15:22:05;23.30;78.90
7666;DHT22;3875;46.562;4.898;2022-10-22T15:24:31;23.20;79.10
7666;DHT22;3875;46.562;4.898;2022-10-22T15:26:57;23.10;79.40
7666;DHT22;3875;46.562;4.898;2022-10-22T15:29:23;23.00;79.70
7666;DHT22;3875;46.562;4.898;2022-10-22T15:31:51;22.90;79.90
7666;DHT22;3875;46.562;4.898;2022-10-22T15:34:23;22.90;80.20
7666;DHT22;3875;46.562;4.898;2022-10-22T15:36:50;22.80;80.50
7666;DHT22;3875;46.562;4.898;2022-10-22T15:39:16;22.80;80.70
7666;DHT22;3875;46.562;4.898;2022-10-22T15:41:42;22.70;80.90
7666;DHT22;3875;46.562;4.898;2022-10-22T15:44:14;22.70;81.20
7666;DHT22;3875;46.562;4.898;2022-10-22T15:46:40;22.60;81.40
7666;DHT22;3875;46.562;4.898;2022-10-22T15:49:06;22.60;81.60
7666;DHT22;3875;46.562;4.898;2022-10-22T15:51:31;22.50;81.80
7666;DHT22;3875;46.562;4.898;2022-10-22T15:53:58;22.50;82.00
7666;DHT22;3875;46.562;4.898;2022-10-22T15:56:25;22.50;82.30
7666;DHT22;3875;46.562;4.898;2022-10-22T15:59:11;22.40;82.60
7666;DHT22;3875;46.562;4.898;2022-10-22T16:01:37;22.40;82.80
7666;DHT22;3875;46.562;4.898;2022-10-22T16:04:04;22.40;82.90
7666;DHT22;3875;46.562;4.898;2022-10-22T16:06:45;22.30;82.80
7666;DHT22;3875;46.562;4.898;2022-10-22T16:09:14;22.40;82.90
7666;DHT22;3875;46.562;4.898;2022-10-22T16:11:40;22.30;83.10
7666;DHT22;3875;46.562;4.898;2022-10-22T16:14:06;22.20;83.40
7666;DHT22;3875;46.562;4.898;2022-10-22T16:16:35;22.20;83.50
7666;DHT22;3875;46.562;4.898;2022-10-22T16:19:01;22.20;83.70
7666;DHT22;3875;46.562;4.898;2022-10-22T16:21:27;22.10;83.90
7666;DHT22;3875;46.562;4.898;2022-10-22T16:23:53;22.10;83.90
7666;DHT22;3875;46.562;4.898;2022-10-22T16:26:19;22.00;83.90
7666;DHT22;3875;46.562;4.898;2022-10-22T16:28:46;21.90;84.00
7666;DHT22;3875;46.562;4.898;2022-10-22T16:31:14;21.80;84.20
7666;DHT22;3875;46.562;4.898;2022-10-22T16:33:41;21.70;84.30
7666;DHT22;3875;46.562;4.898;2022-10-22T16:36:12;21.60;84.40
7666;DHT22;3875;46.562;4.898;2022-10-22T16:38:37;21.50;84.70
7666;DHT22;3875;46.562;4.898;2022-10-22T16:41:07;21.40;85.00
7666;DHT22;3875;46.562;4.898;2022-10-22T16:43:33;21.30;85.30
7666;DHT22;3875;46.562;4.898;2022-10-22T16:45:58;21.20;85.40
7666;DHT22;3875;46.562;4.898;2022-10-22T16:48:24;21.10;85.50
7666;DHT22;3875;46.562;4.898;2022-10-22T16:50:50;21.00;85.70
7666;DHT22;3875;46.562;4.898;2022-10-22T16:53:16;20.90;86.00
7666;DHT22;3875;46.562;4.898;2022-10-22T16:55:42;20.80;86.30
7666;DHT22;3875;46.562;4.898;2022-10-22T16:58:08;20.80;86.40
7666;DHT22;3875;46.562;4.898;2022-10-22T17:00:33;20.50;87.00
7666;DHT22;3875;46.562;4.898;2022-10-22T17:02:59;20.30;87.60
7666;DHT22;3875;46.562;4.898;2022-10-22T17:05:25;20.20;87.70
7666;DHT22;3875;46.562;4.898;2022-10-22T17:07:51;20.00;88.20
7666;DHT22;3875;46.562;4.898;2022-10-22T17:10:18;19.90;88.40
7666;DHT22;3875;46.562;4.898;2022-10-22T17:12:45;19.80;88.30
7666;DHT22;3875;46.562;4.898;2022-10-22T17:15:11;19.80;88.30
7666;DHT22;3875;46.562;4.898;2022-10-22T17:17:36;19.70;88.70
7666;DHT22;3875;46.562;4.898;2022-10-22T17:20:03;19.60;89.00
7666;DHT22;3875;46.562;4.898;2022-10-22T17:22:28;19.50;89.20
7666;DHT22;3875;46.562;4.898;2022-10-22T17:25:24;19.50;89.40
7666;DHT22;3875;46.562;4.898;2022-10-22T17:27:57;19.50;89.30
7666;DHT22;3875;46.562;4.898;2022-10-22T17:30:22;19.50;89.10
7666;DHT22;3875;46.562;4.898;2022-10-22T17:32:50;19.50;89.10
7666;DHT22;3875;46.562;4.898;2022-10-22T17:35:16;19.60;88.80
7666;DHT22;3875;46.562;4.898;2022-10-22T17:37:42;19.60;88.70
7666;DHT22;3875;46.562;4.898;2022-10-22T17:40:08;19.70;88.60
7666;DHT22;3875;46.562;4.898;2022-10-22T17:42:34;19.70;88.50
7666;DHT22;3875;46.562;4.898;2022-10-22T17:45:00;19.70;88.20
7666;DHT22;3875;46.562;4.898;2022-10-22T17:47:25;19.60;88.20